Time;durP1;ratioP1;P1;durP2;ratioP2;P2;SDS_P1;SDS_P2;PMS_P1;PMS_P2;Temp;Humidity;BMP_temperature;BMP_pressure;BME280_temperature;BME280_humidity;BME280_pressure;Samples;Min_cycle;Max_cycle;Signal;HPM_P1;HPM_P2
2022/08/01 00:11:01;;;;;;;11.37;3.73;;;;;;;23.99;61.40;99634.41;31363581;28;20060;-75
2022/08/01 00:26:03;;;;;;;9.43;3.43;;;;;;;23.96;59.00;99619.56;31379088;28;20959;-75
2022/08/01 00:41:05;;;;;;;8.23;3.40;;;;;;;23.91;57.84;99631.47;31379812;28;20049;-75
2022/08/01 00:56:07;;;;;;;12.00;4.90;;;;;;;23.79;55.43;99619.03;31377752;28;20037;-74
2022/08/01 01:11:43;;;;;;;7.60;5.57;;;;;;;23.70;52.49;99611.81;31350658;28;20087;-75
2022/08/01 01:26:52;;;;;;;9.25;5.35;;;;;;;23.61;52.74;99609.41;31368492;28;20056;-75
2022/08/01 01:41:56;;;;;;;7.57;4.47;;;;;;;23.44;54.17;99612.28;31390864;28;20048;-75
2022/08/01 01:57:00;;;;;;;10.27;6.65;;;;;;;23.26;52.86;99584.53;31367998;28;20052;-75
2022/08/01 02:12:04;;;;;;;10.25;7.65;;;;;;;23.19;53.56;99635.69;31368840;28;20398;-75
2022/08/01 02:27:12;;;;;;;7.07;4.40;;;;;;;23.10;53.42;99622.19;31381294;28;20067;-75
2022/08/01 02:42:18;;;;;;;5.68;4.05;;;;;;;22.97;54.93;99614.47;31339296;28;20107;-75
2022/08/01 02:57:21;;;;;;;11.05;7.25;;;;;;;23.04;57.27;99585.50;31384802;28;20061;-74
2022/08/01 03:12:29;;;;;;;5.82;3.78;;;;;;;22.86;62.89;99603.50;31366933;28;20411;-75
2022/08/01 03:27:34;;;;;;;7.25;5.00;;;;;;;22.72;66.91;99610.84;31385823;28;20049;-76
2022/08/01 03:42:45;;;;;;;7.43;4.82;;;;;;;22.12;74.82;99623.78;31364425;28;20044;-76
2022/08/01 03:57:48;;;;;;;9.85;5.38;;;;;;;21.25;88.11;99647.06;31375776;28;20068;-76
2022/08/01 04:12:50;;;;;;;11.23;6.13;;;;;;;20.27;100.00;99658.13;31374980;28;20049;-76
2022/08/01 04:27:53;;;;;;;9.33;5.50;;;;;;;20.17;100.00;99601.69;31362354;28;20064;-77
2022/08/01 04:42:55;;;;;;;8.87;6.07;;;;;;;20.28;100.00;99618.28;31361754;28;20052;-77
2022/08/01 04:57:57;;;;;;;14.75;7.68;;;;;;;20.46;100.00;99622.63;31379730;28;20053;-77
2022/08/01 05:13:00;;;;;;;;;;;;;;;20.68;100.00;99667.53;31353721;28;20410;-76
2022/08/01 05:28:02;;;;;;;22.75;11.43;;;;;;;20.77;100.00;99650.75;31356399;28;19927;-75
2022/08/01 05:43:05;;;;;;;29.83;10.17;;;;;;;20.73;100.00;99633.69;31347641;28;20056;-76
2022/08/01 05:58:06;;;;;;;10.20;7.18;;;;;;;20.56;100.00;99692.81;31362120;28;20728;-76
2022/08/01 06:13:13;;;;;;;13.68;8.57;;;;;;;20.42;100.00;99716.56;31385707;28;20044;-76
2022/08/01 06:28:14;;;;;;;14.15;10.15;;;;;;;20.17;100.00;99670.59;31410031;28;20075;-76
2022/08/01 06:43:18;;;;;;;12.60;8.85;;;;;;;20.04;100.00;99671.78;31395986;28;20047;-76
2022/08/01 06:58:20;;;;;;;37.33;21.30;;;;;;;20.01;100.00;99616.94;31411216;28;20057;-74
2022/08/01 07:13:33;;;;;;;58.97;30.70;;;;;;;19.98;100.00;99607.66;31329216;28;20127;-75
2022/08/01 07:28:46;;;;;;;71.82;39.20;;;;;;;20.38;100.00;99638.88;31359225;28;21244;-74
2022/08/01 07:43:48;;;;;;;56.80;28.50;;;;;;;21.38;100.00;99671.38;31363771;28;20048;-74
2022/08/01 07:58:59;;;;;;;36.97;20.90;;;;;;;21.98;100.00;99678.06;31322954;28;20064;-77
2022/08/01 08:14:01;;;;;;;23.02;13.48;;;;;;;21.91;100.00;99644.69;31362144;28;20116;-81
2022/08/01 08:29:03;;;;;;;30.27;17.00;;;;;;;22.35;100.00;99629.94;31394611;28;20052;-77
2022/08/01 08:44:07;;;;;;;14.23;9.47;;;;;;;22.33;100.00;99626.94;31365917;28;20048;-84
2022/08/01 08:59:13;;;;;;;10.65;8.05;;;;;;;22.48;100.00;99627.34;31359232;28;20049;-77
2022/08/01 09:14:22;;;;;;;13.23;7.30;;;;;;;23.57;100.00;99619.25;31372759;28;20116;-81
2022/08/01 09:29:28;;;;;;;9.90;6.53;;;;;;;23.78;100.00;99634.16;31325604;28;20049;-76
2022/08/01 09:44:43;;;;;;;11.55;7.30;;;;;;;23.86;100.00;99629.50;31352960;28;20123;-79
2022/08/01 09:59:59;;;;;;;7.30;5.18;;;;;;;23.99;96.99;99649.03;31357462;28;20055;-76
2022/08/01 10:15:03;;;;;;;6.68;4.65;;;;;;;24.98;99.71;99672.47;31330588;28;20041;-79
2022/08/01 10:30:08;;;;;;;8.07;5.75;;;;;;;24.24;95.75;99665.63;31360371;28;20103;-77
2022/08/01 10:45:27;;;;;;;9.82;5.15;;;;;;;22.07;100.00;99730.31;31369962;28;20497;-79
2022/08/01 11:00:31;;;;;;;11.45;6.40;;;;;;;19.90;100.00;99821.44;31350700;28;20064;-80
2022/08/01 11:15:35;;;;;;;13.23;6.83;;;;;;;19.58;100.00;99778.63;31380467;28;20123;-79
2022/08/01 11:30:54;;;;;;;11.43;6.50;;;;;;;19.89;100.00;99753.81;31399683;28;20052;-80
2022/08/01 11:45:56;;;;;;;14.35;8.50;;;;;;;20.59;100.00;99780.81;31376212;28;20083;-80
2022/08/01 12:00:59;;;;;;;16.48;10.25;;;;;;;20.89;100.00;99847.41;31378497;28;20418;-80
2022/08/01 12:16:07;;;;;;;11.27;8.00;;;;;;;20.96;100.00;99868.25;31365985;28;20075;-78
2022/08/01 12:31:09;;;;;;;14.80;8.57;;;;;;;21.03;100.00;99865.00;31350704;28;20505;-78
2022/08/01 12:46:17;;;;;;;14.82;10.10;;;;;;;20.64;100.00;99868.34;31341387;28;20064;-81
2022/08/01 13:01:25;;;;;;;15.15;9.48;;;;;;;20.31;100.00;99724.78;31353148;28;20056;-80
2022/08/01 13:16:28;;;;;;;16.52;9.65;;;;;;;19.94;100.00;99764.13;31381843;28;20053;-78
2022/08/01 13:31:50;;;;;;;16.20;9.45;;;;;;;19.84;100.00;99685.69;31392688;28;20056;-79
2022/08/01 13:46:52;;;;;;;15.48;9.30;;;;;;;19.65;100.00;99668.03;31369869;28;20045;-79
2022/08/01 14:01:55;;;;;;;12.37;6.87;;;;;;;19.64;100.00;99655.53;31344825;28;20067;-80
2022/08/01 14:16:59;;;;;;;;;;;;;;;19.75;100.00;99650.84;31373539;28;20132;-80
2022/08/01 14:32:01;;;;;;;10.63;6.53;;;;;;;19.75;100.00;99721.69;31350724;28;19960;-81
2022/08/01 14:47:03;;;;;;;11.77;7.20;;;;;;;19.72;100.00;99712.41;31381571;28;20044;-79
2022/08/01 15:02:23;;;;;;;8.77;5.22;;;;;;;19.78;100.00;99728.97;31386157;28;20076;-81
2022/08/01 15:17:30;;;;;;;7.75;5.13;;;;;;;19.82;100.00;99726.00;31421555;28;20052;-83
2022/08/01 15:32:32;;;;;;;8.68;5.18;;;;;;;20.12;100.00;99682.31;31383844;28;20049;-81
2022/08/01 15:47:34;;;;;;;8.18;4.85;;;;;;;20.08;100.00;99710.09;31390687;28;20080;-82
2022/08/01 16:02:36;;;;;;;8.82;5.85;;;;;;;20.04;100.00;99668.28;31354672;28;20044;-82
2022/08/01 16:17:39;;;;;;;11.63;6.27;;;;;;;19.88;100.00;99614.59;31355892;28;20110;-80
2022/08/01 16:32:45;;;;;;;9.73;6.05;;;;;;;19.92;100.00;99579.31;31370066;28;20056;-78
2022/08/01 16:47:53;;;;;;;6.25;3.80;;;;;;;20.02;100.00;99590.88;31359212;28;20120;-78
2022/08/01 17:02:55;;;;;;;6.20;3.70;;;;;;;20.07;100.00;99603.94;31359435;28;20048;-78
2022/08/01 17:17:57;;;;;;;11.77;5.90;;;;;;;19.94;100.00;99618.13;31384747;28;20049;-80
2022/08/01 17:32:59;;;;;;;40.33;21.08;;;;;;;19.29;100.00;99553.94;31387266;28;20072;-82
2022/08/01 17:48:01;;;;;;;19.38;10.25;;;;;;;19.02;100.00;99536.00;31370792;28;20047;-81
2022/08/01 18:03:04;;;;;;;13.82;7.43;;;;;;;18.96;100.00;99537.94;31363953;28;20049;-79
2022/08/01 18:18:12;;;;;;;14.75;8.25;;;;;;;19.05;100.00;99581.78;31385163;28;20062;-81
2022/08/01 18:33:14;;;;;;;9.30;5.50;;;;;;;19.01;100.00;99586.75;31415361;28;20057;-80
2022/08/01 18:48:17;;;;;;;9.65;6.55;;;;;;;19.05;100.00;99590.03;31410627;28;20080;-81
2022/08/01 19:03:19;;;;;;;7.70;5.45;;;;;;;19.10;100.00;99570.09;31398454;28;20045;-78
2022/08/01 19:18:22;;;;;;;8.45;5.90;;;;;;;19.09;100.00;99563.06;31378198;28;20124;-78
2022/08/01 19:33:25;;;;;;;10.10;6.60;;;;;;;19.17;100.00;99520.09;31374129;28;20060;-81
2022/08/01 19:48:27;;;;;;;9.60;6.22;;;;;;;19.24;100.00;99486.63;31366309;28;20041;-78
2022/08/01 20:03:33;;;;;;;9.88;6.50;;;;;;;19.36;100.00;99572.75;31360881;28;20144;-78
2022/08/01 20:18:35;;;;;;;9.32;6.40;;;;;;;19.46;100.00;99622.84;31369693;28;20075;-78
2022/08/01 20:33:42;;;;;;;9.18;6.15;;;;;;;19.68;100.00;99705.63;31382738;28;20482;-80
2022/08/01 20:48:47;;;;;;;10.18;7.45;;;;;;;19.04;100.00;99643.56;31376612;28;20065;-78
2022/08/01 21:04:16;;;;;;;14.40;8.27;;;;;;;18.67;100.00;99638.69;31408257;28;20072;-77
2022/08/01 21:19:26;;;;;;;11.55;7.78;;;;;;;18.62;100.00;99598.19;31341355;28;20072;-78
2022/08/01 21:34:29;;;;;;;10.90;6.15;;;;;;;18.56;100.00;99654.31;31367933;28;20402;-79
2022/08/01 22:06:00;;;;;;;9.70;6.40;;;;;;;18.58;100.00;99625.09;31349471;28;20154;-78
2022/08/01 22:21:02;;;;;;;8.40;5.57;;;;;;;18.64;100.00;99601.19;31372501;28;20144;-79
2022/08/01 22:36:05;;;;;;;7.38;4.38;;;;;;;18.67;100.00;99613.94;31378301;28;20048;-79
2022/08/01 22:51:25;;;;;;;7.00;5.10;;;;;;;18.62;100.00;99661.41;31382893;28;20059;-78
2022/08/01 23:06:41;;;;;;;7.72;5.15;;;;;;;18.68;100.00;99659.44;31396827;28;20143;-78
2022/08/01 23:21:44;;;;;;;6.57;4.47;;;;;;;18.61;100.00;99606.91;31376448;28;20483;-78
2022/08/01 23:36:46;;;;;;;3.70;2.88;;;;;;;18.44;100.00;99609.44;31392309;28;20057;-78
2022/08/01 23:51:48;;;;;;;5.72;3.10;;;;;;;18.44;100.00;99584.72;31372409;28;20063;-78
